Tiempo atmosférico en la estación meteorológica de Colmenar Viejo, Madrid (1004 m.)



Fecha
DESCASC
Temp. máxima en grados centígrados (hora)
DESCASC
Temp. mínima en grados centígrados (hora)
DESCASC
Temp. media en grados centígrados
DESCASC
Racha de viento máxima en m/sg (hora)
DESCASC
Velocidad máxima media en intervalos de 10 minutos(hora)
DESCASC
Precipitaciones diarias en mm
DESCASC
Precipitaciones de 00:00 a 06:00 en mm
DESCASC
Precipitaciones de 06:00 a 12:00 en mm
DESCASC
Precipitaciones de 12:00 a 18:00 en mm
DESCASC
Precipitaciones de 18:00 a 24:00 en mm
DESCASC
06-12-2018 14.9 (14:00) 6.4 (08:10) 10.6 3.33 (14:50) 1.94 (18:40) 0 0 0 0 0
05-12-2018 15 (16:10) 7.9 (08:30) 11.5 8.33 (11:20) 2.5 (15:00) 0 0 0 0 0
04-12-2018 15.1 (15:30) 6.3 (00:00) 10.7 7.78 (14:20) 2.22 (14:20) 0.1 0 0.1 0 0
03-12-2018 6.9 (22:20) 1.2 (00:00) 4.1 3.06 (19:40) 1.39 (08:00) 0.2 0.1 0.1 0 0
02-12-2018 5.4 (14:50) 2.4 (00:00) 3.9 2.78 (10:40) 1.67 (10:40) 0 0 0 0 0
01-12-2018 8.1 (15:40) 1.5 (00:00) 4.8 4.44 (15:10) 2.5 (15:10) 0 0 0 0 0
30-11-2018 9.1 (15:50) 1.2 (00:00) 5.2 6.39 (14:20) 3.61 (14:20) 1 1 0 0 0
29-11-2018 10.8 (14:30) 2.1 (00:00) 6.5 7.5 (21:40) 3.06 (13:50) 2.5 0 0 0 2.5
28-11-2018 9.3 (14:30) 1.9 (00:00) 5.6 4.44 (19:30) 1.67 (13:30) 0 0 0 0 0
27-11-2018 9.2 (14:30) 2.4 (00:00) 5.8 7.22 (17:50) 1.94 (14:50) 0 0 0 0 0
26-11-2018 8.4 (16:50) 3.4 (08:40) 5.9 18.33 (04:00) 8.06 (04:10) 1.7 0.8 0.9 0 0
25-11-2018 12.6 (15:10) 4 (00:00) 8.3 13.06 (12:00) 5.83 (12:30) 5.2 0.8 0.5 0 3.9
24-11-2018 4.7 (17:00) -0.7 (-00:0) 2 3.61 (22:10) 2.22 (22:20) 0.3 0 0 0 0.3
23-11-2018 9 (14:20) 1.6 (00:00) 5.3 8.61 (12:40) 3.61 (13:20) 5.5 3.8 1.6 0.1 0
22-11-2018 7.2 (16:00) 3.1 (00:00) 5.1 5.83 (18:20) 2.5 (23:30) 2.1 0.3 0.5 0 1.3
21-11-2018 8.3 (14:40) 3.4 (00:00) 5.9 11.39 (12:30) 6.39 (12:50) 2.6 0.2 1 1.3 0.1
20-11-2018 8.9 (15:00) 4.3 (00:00) 6.6 11.39 (19:30) 5.28 (15:30) 2.1 0.5 0.7 0.6 0.3
19-11-2018 10 (12:30) 5.5 (00:00) 7.8 8.33 (20:30) 5.28 (00:20) 6.7 6.6 0 0 0.1
18-11-2018 9.4 (00:00) 6.1 (00:00) 7.7 10.28 (23:40) 6.11 (22:50) 10.2 0 0 0.9 9.3
17-11-2018 12.2 (15:20) 8.7 (00:00) 10.4 4.72 (10:10) 3.61 (10:10) 0 0 0 0 0
16-11-2018 12.1 (10:10) 9.6 (00:00) 10.9 7.5 (10:00) 3.89 (10:20) 1.9 1.2 0.6 0 0.1
15-11-2018 14.9 (14:50) 9.6 (00:00) 12.3 6.94 (14:00) 3.89 (23:10) 0.1 0 0 0 0.1
14-11-2018 13.6 (15:20) 8.3 (00:00) 11 7.22 (20:20) 3.61 (20:20) 0.9 0 0 0 0.9
13-11-2018 16.6 (15:40) 8.2 (00:00) 12.4 8.33 (14:40) 4.44 (12:40) 0 0 0 0 0
12-11-2018 10.2 (16:50) 7.5 (00:00) 8.8 6.67 (01:20) 3.33 (11:40) 3.1 0.1 0.8 2.2 0
11-11-2018 12.1 (16:10) 8.6 (00:00) 10.4 10.83 (05:00) 5.28 (05:00) 3.8 3.8 0 0 0
10-11-2018 9.9 (22:40) 5.8 (00:00) 7.8 11.67 (13:50) 6.94 (14:00) 4.7 0 2.9 1.2 0.6

Gráficas

Temp. máximas Temp. mínimas Temp. medias Precipitaciones Rachas de viento máximas Velocidades máximas media en intervalos de 10 minutos

Datos horarios

Fecha y hora oficial Temperatura (ºC) Velocidad del viento (km/h) Dirección del viento Racha (km/h) Dirección de racha Precipitación (mm) Presión (hPa) Tendencia (hPa) Humedad (%)
2018-12-09 23:00:00 9.5 0 Calma 10 Norte 0 916.1 0.5 26
2018-12-09 22:00:00 9.3 2 Norte 9 Norte 0 915.9 0.9 29
2018-12-09 21:00:00 9.1 4 Norte 8 Noroeste 0 915.7 0.9 33
2018-12-09 20:00:00 9.8 0 Calma 9 Noroeste 0 915.6 1.2 49
2018-12-09 19:00:00 11 6 Nordeste 18 Nordeste 0 915 0.9 31
2018-12-09 18:00:00 11.5 5 Este 10 Sudeste 0 914.8 0.7 56
2018-12-09 17:00:00 14.9 3 Sudoeste 8 Sudoeste 0 914.4 0.1 48
2018-12-09 16:00:00 15 4 Sudeste 13 Sur 0 914.1 -0.9 45
2018-12-09 15:00:00 15.1 4 Sudeste 14 Sudeste 0 914.1 -1.6 45
2018-12-09 14:00:00 15.4 5 Sur 9 Sudeste 0 914.3 -1.5 49
2018-12-09 13:00:00 14.2 5 Este 10 Sudeste 0 915 -0.3 52
2018-12-09 12:00:00 13.8 4 Este 9 Sur 0 915.7 0.8 53
2018-12-09 11:00:00 12.3 0 Calma 7 Sur 0 915.8 1.2 48
2018-12-09 10:00:00 10.3 2 Este 10 Este 0 915.3 1.2 55
2018-12-09 09:00:00 8.2 3 Sudoeste 8 Norte 0 914.9 0.6 53
2018-12-09 08:00:00 7.2 2 Este 10 Nordeste 0 914.6 0.2 57
2018-12-09 07:00:00 7.5 2 Sur 9 Norte 0 914.1 -0.5 57
2018-12-09 06:00:00 6.9 3 Este 13 Noroeste 0 914.3 -0.4 62
2018-12-09 05:00:00 7.3 5 Sudeste 12 Nordeste 0 914.4 -0.2 64
2018-12-09 04:00:00 7.8 0 Calma 11 Norte 0 914.6 -0.3 62
2018-12-09 03:00:00 7.6 4 Este 8 Este 0 914.7 -0.4 64
2018-12-09 02:00:00 7.5 3 Nordeste 6 Este 0 914.6 -0.3 67
2018-12-09 01:00:00 7.8 2 Este 5 Norte 0 914.9 0.1 68
2018-12-09 00:00:00 7.2 3 Norte 8 Oeste 0 915.1 0.7 72
2018-12-08 23:00:00 7 4 Oeste 7 Nordeste 0 914.9 0.4 75
2018-12-08 22:00:00 7.9 5 Sudeste 9 Sudeste 0 914.8 0.7 69
2018-12-08 21:00:00 7.7 0 Calma 6 Sudoeste 0 914.4 0.7 72
2018-12-08 20:00:00 7.9 3 Sur 6 Sur 0 914.5 0.8 72
2018-12-08 19:00:00 8.7 4 Sudoeste 6 Sur 0 914.1 0.7 69
2018-12-08 18:00:00 9.4 3 Sudoeste 5 Sudoeste 0 913.7 0.6 66
2018-12-08 17:00:00 10.9 4 Sudeste 10 Sudeste 0 913.7 -0.2 60
2018-12-08 16:00:00 12.3 4 Sur 10 Sur 0 913.4 -1.2 58
2018-12-08 15:00:00 12.6 3 Sur 10 Sur 0 913.1 -1.9 55
2018-12-08 14:00:00 11.6 2 Sur 10 Sudoeste 0 913.9 -0.6 60
2018-12-08 13:00:00 10.8 4 Sur 11 Sur 0 914.6 0.9 64
2018-12-08 12:00:00 9.6 6 Sur 14 Sudoeste 0 915 1.5 73
2018-12-08 11:00:00 7.8 5 Oeste 14 Oeste 0 914.5 1.7 91
2018-12-08 10:00:00 5.6 6 Oeste 11 Oeste 0 913.7 1.5 98
2018-12-08 09:00:00 5.3 6 Sudeste 13 Sur 0 913.5 1.6 96
2018-12-08 08:00:00 5.4 8 Este 10 Este 0 912.8 0.9 94
2018-12-08 07:00:00 5.6 7 Este 15 Este 0 912.2 -0.1 91
2018-12-08 06:00:00 5.7 7 Este 15 Sudeste 0 911.9 -0.3 91
2018-12-08 05:00:00 6.3 7 Este 12 Sudeste 0 911.9 0.1 87
2018-12-08 04:00:00 6.8 5 Este 10 Sudeste 0 912.3 -0.1 87
2018-12-08 03:00:00 6.3 6 Este 9 Este 0 912.2 -0.3 84
2018-12-08 02:00:00 7.6 2 Oeste 9 Oeste 0 911.8 -0.6 76
2018-12-08 01:00:00 7.2 4 Sudoeste 10 Nordeste 0 912.4 -0.1 84
2018-12-08 00:00:00 6.6 5 Nordeste 10 Sudeste 0 912.5 0.2 85
2018-12-07 23:00:00 7 6 Este 9 Este 0 912.4 0.4 81
2018-12-07 22:00:00 7.8 7 Este 11 Este 0 912.5 1.1 77
2018-12-07 21:00:00 8.2 5 Sudeste 12 Sur 0 912.3 1 75
2018-12-07 20:00:00 8.8 5 Sudeste 12 Nordeste 0 912 1 75
2018-12-07 19:00:00 8.8 7 Este 10 Sudeste 0 911.4 0.5 72
2018-12-07 18:00:00 10.2 4 Sudeste 18 Sur 0 911.3 0.5 67
2018-12-07 17:00:00 10.5 8 Este 15 Sudeste 0 911 -0.1 69
2018-12-07 16:00:00 11.9 9 Sudeste 17 Este 0 910.9 -1.2 62
2018-12-07 15:00:00 13 6 Sur 14 Sudeste 0 910.8 -1.7 57
2018-12-07 14:00:00 11.2 8 Sudeste 13 Sur 0 911.1 -2.1 64
2018-12-07 13:00:00 10.8 9 Sudeste 13 Este 0 912.1 -0.8 65
2018-12-07 12:00:00 10.3 3 Sudeste 12 Sudeste 0 912.5 0.4 74
2018-12-07 11:00:00 8.5 6 Sudeste 12 Sudeste 0 913.2 1.3 80
2018-12-07 10:00:00 6.7 0 Calma 8 Este 0 912.9 0.9 86
2018-12-07 09:00:00 5.4 3 Sudeste 5 Sudeste 0 912.1 0.3 88
2018-12-07 08:00:00 4.6 0 Calma 5 Nordeste 0 911.9 -0.1 87
2018-12-07 07:00:00 4.9 3 Este 7 Nordeste 0 912 -0.1 88
2018-12-07 06:00:00 4.9 3 Este 7 Este 0 911.8 -0.4 91
2018-12-07 05:00:00 5.3 0 Calma 5 Sudeste 0 912 -0.4 85
2018-12-07 04:00:00 6.2 0 Calma 6 Este 0 912.1 -0.6 94
2018-12-07 03:00:00 6.9 0 Calma 8 Noroeste 0 912.2 -0.8 91
2018-12-07 02:00:00 7 3 Noroeste 8 Norte 0 912.4 -0.8 91
2018-12-07 01:00:00 7.1 3 Noroeste 7 Noroeste 0 912.7 -0.4 89
2018-12-07 00:00:00 7.4 0 Calma 4 Oeste 0 913 0 88
2018-12-06 23:00:00 7.8 0 Calma 6 Sudeste 0 913.2 0.1 87
2018-12-06 22:00:00 8.1 0 Calma 6 Noroeste 0 913.1 0.2 85
2018-12-06 21:00:00 9 3 Este 6 Nordeste 0 913 0.3 81
2018-12-06 20:00:00 9 4 Nordeste 7 Nordeste 0 913.1 0.5 79
2018-12-06 19:00:00 9.4 5 Este 9 Este 0 912.9 0.2 76
2018-12-06 18:00:00 11.2 4 Este 12 Sudoeste 0 912.7 0 68
2018-12-06 17:00:00 13.9 5 Sudoeste 12 Sudoeste 0 912.6 -0.8 59
2018-12-06 16:00:00 14.3 6 Sur 11 Sur 0 912.7 -1 58
2018-12-06 15:00:00 14.6 6 Sur 12 Sur 0 912.7 -1.7 59
2018-12-06 14:00:00 14.7 5 Sur 11 Sur 0 913.4 -1 58
2018-12-06 13:00:00 14 4 Sur 11 Sur 0 913.7 -0.4 58
2018-12-06 12:00:00 12.9 4 Sudoeste 9 Sudoeste 0 914.4 0.9 64
2018-12-06 11:00:00 11.9 3 Sudoeste 7 Sudeste 0 914.4 1.1 70
2018-12-06 10:00:00 10.6 0 Calma 5 Noroeste 0 914.1 1.2 77
2018-12-06 09:00:00 7.4 0 Calma 8 Noroeste 0 913.5 1 84
2018-12-06 08:00:00 6.5 5 Noroeste 7 Noroeste 0 913.3 0.6 85
2018-12-06 07:00:00 7.3 2 Este 6 Este 0 912.9 0.2 83
2018-12-06 06:00:00 7.5 0 Calma 6 Este 0 912.5 -0.4 81
2018-12-06 05:00:00 7.7 4 Este 6 Este 0 912.7 -0.4 87
2018-12-06 04:00:00 7.7 2 Sudeste 6 Noroeste 0 912.7 -0.4 88
2018-12-06 03:00:00 7.6 0 Calma 9 Sudeste 0 912.9 0 85
2018-12-06 02:00:00 8.1 5 Este 9 Este 0 913.1 0.5 85
2018-12-06 01:00:00 8.5 4 Nordeste 8 Este 0 913.1 0.8 81
2018-12-06 00:00:00 8.9 4 Este 10 Este 0 912.9 1.1 76
2018-12-05 23:00:00 8.8 7 Este 12 Este 0 912.6 1.1 84
2018-12-05 22:00:00 9.5 6 Nordeste 13 Este 0 912.3 0.9 82
2018-12-05 21:00:00 9.9 5 Sudoeste 10 Sudoeste 0 911.8 0.2 79
2018-12-05 20:00:00 10.6 6 Sudoeste 9 Sudoeste 0 911.5 0.4 73
2018-12-05 19:00:00 11.1 4 Sur 9 Sur 0 911.4 0.1 70
2018-12-05 18:00:00 12 0 Calma 8 Sudoeste 0 911.6 0.3 66
2018-12-05 17:00:00 14.2 4 Sur 12 Sur 0 911.1 -0.4 59
2018-12-05 16:00:00 14.9 5 Sudoeste 13 Sur 0 911.3 -0.3 60
2018-12-05 15:00:00 14.4 9 Sur 14 Sur 0 911.3 -0.8 60
2018-12-05 14:00:00 14.5 6 Este 12 Este 0 911.5 -0.7 61
2018-12-05 13:00:00 14.3 4 Sur 10 Sudeste 0 911.6 -0.1 62
2018-12-05 12:00:00 13.8 4 Sur 30 Este 0 912.1 0.8 71
2018-12-05 11:00:00 12.1 0 Calma 14 Sudeste 0 912.2 1.3 83
2018-12-05 10:00:00 9.8 0 Calma 3 Noroeste 0 911.7 1.1 88
2018-12-05 09:00:00 8.2 0 Calma 3 Noroeste 0 911.3 1 95
2018-12-05 08:00:00 8.4 0 Calma -- -- 0 910.9 0.6 93
2018-12-05 07:00:00 8.5 0 Calma 6 Norte 0 910.6 0.3 91
2018-12-05 06:00:00 8.5 4 Norte 8 Norte 0 910.3 -0.1 91
2018-12-05 05:00:00 8.4 0 Calma 0 Calma 0 910.3 0 91
2018-12-05 04:00:00 8.7 0 Calma 3 Noroeste 0 910.3 -0.3 89
2018-12-05 03:00:00 9.1 0 Calma -- -- 0 910.4 -0.3 89
2018-12-05 02:00:00 9.1 0 Calma 0 Calma 0 910.3 -0.3 90
2018-12-05 01:00:00 9.2 0 Calma 0 Calma 0 910.6 0.3 91
2018-12-05 00:00:00 9.3 0 Calma 5 Sudeste 0 910.7 0.5 88
2018-12-04 23:00:00 9.7 0 Calma 7 Norte 0 910.6 0.7 83
2018-12-04 22:00:00 10.1 3 Norte 6 Norte 0 910.3 0.6 82
2018-12-04 21:00:00 9.8 6 Norte 8 Norte 0 910.2 0.6 79
2018-12-04 20:00:00 9.9 3 Noroeste 5 Norte 0 909.9 0.7 78
2018-12-04 19:00:00 10.9 0 Calma 5 Sur 0 909.7 0.5 79
2018-12-04 18:00:00 12.3 3 Sur 8 Sudeste 0 909.6 0.2 70
2018-12-04 17:00:00 13.8 6 Sur 13 Sur 0 909.2 -0.5 63
2018-12-04 16:00:00 14.5 6 Sur 10 Sudeste 0 909.2 -1 62
2018-12-04 15:00:00 14.6 6 Sudeste 28 Sudeste 0 909.4 -1.2 61
2018-12-04 14:00:00 14.5 5 Sur 12 Sur 0 909.7 -1 62
2018-12-04 13:00:00 14.3 4 Sudeste 21 Sudeste 0 910.2 -0.2 67
2018-12-04 12:00:00 13.6 3 Sur 14 Este 0 910.6 0.7 75
2018-12-04 11:00:00 12.7 0 Calma 6 Este 0 910.7 1.1 83
2018-12-04 10:00:00 9.9 0 Calma 3 Noroeste 0 910.4 1 92
2018-12-04 09:00:00 9.1 0 Calma 2 Este 0.1 909.9 0.8 97
2018-12-04 08:00:00 8.3 0 Calma 7 Nordeste 0 909.6 0.4 97
2018-12-04 07:00:00 8.2 2 Nordeste 5 Norte 0 909.4 -0.1 97
2018-12-04 06:00:00 7.9 4 Norte 8 Norte 0 909.1 -0.6 97
2018-12-04 05:00:00 7.6 5 Norte 8 Norte 0 909.2 -0.7 97
2018-12-04 04:00:00 7.3 2 Este 4 Este 0 909.5 -0.5 98
2018-12-04 03:00:00 7.3 3 Norte 6 Norte 0 909.7 -0.5 98
2018-12-04 02:00:00 6.5 0 Calma 5 Sudoeste 0 909.9 -0.1 98
2018-12-04 01:00:00 7.9 0 Calma 4 Noroeste 0 910 0.1 99
2018-12-04 00:00:00 6.3 2 Noroeste 4 Noroeste 0 910.2 0 99
2018-12-03 23:00:00 6.1 0 Calma 4 Oeste 0 910 -0.1 99
2018-12-03 22:00:00 6.3 0 Calma 6 Nordeste 0 909.9 0.3 99
2018-12-03 21:00:00 5.4 0 Calma 6 Este 0 910.2 1 99
2018-12-03 20:00:00 4.2 2 Noroeste 11 Oeste 0 910.1 0.9 99
2018-12-03 19:00:00 4.1 5 Norte 10 Norte 0 909.6 0.5 99
2018-12-03 18:00:00 4.5 0 Calma 6 Oeste 0 909.2 0.2 99
2018-12-03 17:00:00 4.9 0 Calma 9 Sudeste 0 909.2 0 99
2018-12-03 16:00:00 5.4 3 Este 9 Sur 0 909.1 -0.1 99
2018-12-03 15:00:00 5.4 3 Sur 7 Sur 0 909 -1 99
2018-12-03 14:00:00 5 0 Calma 7 Noroeste 0 909.2 -0.6 99
2018-12-03 13:00:00 4.2 0 Calma 8 Sudeste 0 909.2 -0.3 99
2018-12-03 12:00:00 3.4 0 Calma 8 Este 0 910 0.8 99
2018-12-03 11:00:00 2.6 3 Este 8 Este 0 909.8 0.9 99
2018-12-03 10:00:00 1.7 0 Calma 6 Norte 0 909.5 0.6 99
2018-12-03 09:00:00 1.3 0 Calma 7 Noroeste 0 909.2 0.3 99
2018-12-03 08:00:00 1.4 5 Este 9 Este 0 908.9 0.1 99
2018-12-03 07:00:00 1.8 2 Nordeste 6 Noroeste 0.1 908.9 -0.2 99
2018-12-03 06:00:00 2.4 2 Noroeste 5 Noroeste 0 908.9 -0.2 99
2018-12-03 05:00:00 2.9 0 Calma 7 Sur 0 908.8 -0.4 99
2018-12-03 04:00:00 3.1 0 Calma 6 Este 0.1 909.1 -0.5 99
2018-12-03 03:00:00 3.3 0 Calma 6 Sudeste 0 909.1 -0.5 99
2018-12-03 02:00:00 3.4 0 Calma 6 Este 0 909.2 -0.1 99
2018-12-03 01:00:00 3.4 2 Sudeste 6 Este 0 909.6 0.2 99
2018-12-03 00:00:00 3.7 0 Calma 8 Sudeste 0 909.6 0.4 99
2018-12-02 23:00:00 3.8 2 Sudeste 6 Sudeste 0 909.3 0.4 99
2018-12-02 22:00:00 4 0 Calma 8 Sur 0 909.4 0.6 99
2018-12-02 21:00:00 3.8 0 Calma 7 Sudoeste 0 909.2 0.6 99
2018-12-02 20:00:00 3.5 0 Calma 9 Sur 0 908.9 0.6 99
2018-12-02 19:00:00 3.3 0 Calma 8 Este 0 908.8 0.7 99
2018-12-02 18:00:00 3.8 0 Calma 10 Sudeste 0 908.6 0.6 99
2018-12-02 17:00:00 4.8 2 Sudeste 9 Sudeste 0 908.3 -0.1 99
2018-12-02 16:00:00 5.3 0 Calma 8 Sur 0 908.1 -0.6 99
2018-12-02 15:00:00 5.2 0 Calma 6 Sudeste 0 908 -1.4 99
2018-12-02 14:00:00 4.8 4 Sudeste 9 Este 0 908.4 -0.9 99
2018-12-02 13:00:00 4.9 2 Este 8 Este 0 908.7 -0.6 99
2018-12-02 12:00:00 4.5 0 Calma 9 Este 0 909.4 0.7 99
2018-12-02 11:00:00 3.7 3 Sudeste 10 Sudeste 0 909.3 1 99
2018-12-02 10:00:00 3.1 0 Calma 9 Este 0 909.3 1.2 99
2018-12-02 09:00:00 3 3 Este 8 Sudeste 0 908.7 0.7 99
2018-12-02 08:00:00 2.5 0 Calma 7 Este 0 908.3 0.3 99
2018-12-02 07:00:00 2.8 3 Oeste 7 Oeste 0 908.1 0.1 99
2018-12-02 06:00:00 3.1 0 Calma 5 Norte 0 908 -0.1 99
2018-12-02 05:00:00 3.5 0 Calma 6 Este 0 908 -0.2 99
2018-12-02 04:00:00 3.6 2 Sudeste 6 Sudeste 0 908 -0.4 99
2018-12-02 03:00:00 3.7 0 Calma 6 Sur 0 908.1 -0.6 98
2018-12-02 02:00:00 4.2 0 Calma 4 Norte 0 908.2 -0.2 95
2018-12-02 01:00:00 4.7 0 Calma 6 Este 0 908.4 0 92
2018-12-02 00:00:00 5 3 Este 10 Este 0 908.7 0.8 92
2018-12-01 23:00:00 4.7 2 Sudeste 11 Este 0 908.4 0.2 91
2018-12-01 22:00:00 5.1 6 Este 9 Este 0 908.4 0.6 89
2018-12-01 21:00:00 5.2 0 Calma 9 Este 0 907.9 0.2 87
2018-12-01 20:00:00 5.4 5 Este 8 Este 0 908.2 0.5 83
2018-12-01 19:00:00 5.8 4 Sudeste 12 Sudeste 0 907.8 0.5 79
2018-12-01 18:00:00 6.2 6 Sudeste 12 Este 0 907.7 0.3 75
2018-12-01 17:00:00 6.4 6 Sudeste 11 Sudeste 0 907.7 0 70
2018-12-01 16:00:00 7.4 4 Sur 16 Sudeste 0 907.3 -0.8 63
2018-12-01 15:00:00 7.3 8 Sur 15 Sudeste 0 907.4 -1.1 62
2018-12-01 14:00:00 7.5 8 Sur 14 Sudeste 0 907.7 -1 65
2018-12-01 13:00:00 6 7 Este 12 Este 0 908.1 -0.2 75
2018-12-01 12:00:00 4.7 3 Sudoeste 8 Sudoeste 0 908.5 0.3 78
2018-12-01 11:00:00 3.6 0 Calma 6 Este 0 908.7 0.8 82
2018-12-01 10:00:00 2.5 5 Este 6 Sudeste 0 908.3 0.7 82
2018-12-01 09:00:00 2.6 4 Sudeste 6 Sur 0 908.2 1.1 80
2018-12-01 08:00:00 2.1 5 Este 7 Este 0 907.9 0.7 80
2018-12-01 07:00:00 1.9 0 Calma 6 Este 0 907.6 -0.1 78
2018-12-01 06:00:00 2.3 2 Sudoeste 7 Sudoeste 0 907.1 -1.1 79
2018-12-01 05:00:00 2.1 4 Sudoeste 13 Sudoeste 0 907.2 -1 79
2018-12-01 04:00:00 2.2 5 Sudoeste 13 Sudoeste 0 907.7 -1.1 79
2018-12-01 03:00:00 1.8 5 Oeste 10 Sudoeste 0 908.2 -1 84
2018-12-01 02:00:00 1.9 4 Noroeste 7 Oeste 0 908.2 -0.5 81
2018-12-01 01:00:00 2.3 3 Oeste 6 Noroeste 0 908.8 0.2 79
2018-12-01 00:00:00 2.8 3 Oeste 6 Oeste 0 909.2 0.9 76
2018-11-30 23:00:00 3.5 3 Sudoeste 7 Noroeste 0 908.7 1.1 73
2018-11-30 22:00:00 3.3 5 Noroeste 8 Noroeste 0 908.6 1.5 75
2018-11-30 21:00:00 3.7 4 Noroeste 9 Noroeste 0 908.3 1.6 72
2018-11-30 20:00:00 4.2 4 Noroeste 8 Noroeste 0 907.6 1 67
2018-11-30 19:00:00 5.6 3 Sur 8 Sudeste 0 907.1 0.5 59
2018-11-30 18:00:00 6.6 5 Sudeste 10 Sudeste 0 906.7 0.5 55
2018-11-30 17:00:00 8.3 5 Sudeste 10 Sur 0 906.6 0.9 51
2018-11-30 16:00:00 8.7 6 Sudeste 19 Sur 0 906.6 0.4 53
2018-11-30 15:00:00 8.2 9 Sudeste 23 Nordeste 0 906.2 0 56
2018-11-30 14:00:00 7.7 8 Sudeste 17 Sudeste 0 905.7 -0.4 63
2018-11-30 13:00:00 7.6 8 Sur 15 Sudeste 0 906.2 0.8 73
2018-11-30 12:00:00 6.9 8 Sur 18 Sur 0 906.2 1.3 80
2018-11-30 11:00:00 6 8 Sudeste 15 Sudeste 0 906.1 2.1 93
2018-11-30 10:00:00 3.5 0 Calma 10 Noroeste 0 905.4 2.3 99
2018-11-30 09:00:00 1.4 0 Calma 8 Nordeste 0 904.9 1.9 99
2018-11-30 08:00:00 1.5 2 Sur 9 Oeste 0 904 0.7 99
2018-11-30 07:00:00 1.9 5 Este 8 Este 0 903.1 0 99
2018-11-30 06:00:00 2.4 4 Este 10 Este 0.1 903 -0.2 99
2018-11-30 05:00:00 3.3 0 Calma 10 Este 0 903.3 -0.2 99
2018-11-30 04:00:00 3.9 8 Este 12 Sudeste 0 903.1 -0.4 99
2018-11-30 03:00:00 4.1 3 Este 6 Norte 0 903.2 -0.5 98
2018-11-30 02:00:00 4.2 0 Calma 9 Sudoeste 0.8 903.5 -0.5 97
2018-11-30 01:00:00 4.5 0 Calma 10 Sur 0.1 903.5 -1.2 96
2018-11-30 00:00:00 4.9 5 Sudoeste 12 Sudoeste 0.2 903.7 -1.1 96
2018-11-29 23:00:00 5.1 4 Oeste 15 Sudoeste 0.1 904 -0.6 94
2018-11-29 22:00:00 5.5 2 Sudoeste 27 Sudoeste 2 904.7 1 85
2018-11-29 21:00:00 6.6 4 Oeste 13 Oeste 0.2 904.8 1 71
2018-11-29 20:00:00 6.2 6 Norte 14 Noroeste 0 904.6 0.5 68
2018-11-29 19:00:00 6.3 2 Noroeste 9 Este 0 903.7 -0.6 62
2018-11-29 18:00:00 6.9 0 Calma 6 Sudeste 0 903.8 -1 60
2018-11-29 17:00:00 7.6 3 Sudeste 8 Sudeste 0 904.1 -1 57
2018-11-29 16:00:00 8.3 4 Sur 14 Sur 0 904.3 -1.3 53
2018-11-29 15:00:00 10 6 Sudoeste 17 Sudeste 0 904.8 -1.3 49
2018-11-29 14:00:00 10.2 10 Sur 17 Sudeste 0 905.1 -1.6 49
2018-11-29 13:00:00 9.3 6 Sur 16 Sur 0 905.6 -0.9 56
2018-11-29 12:00:00 8.8 4 Sur 9 Sudeste 0 906.1 -0.6 62
2018-11-29 11:00:00 7.5 4 Sudeste 8 Este 0 906.7 0.3 67
2018-11-29 10:00:00 5.6 0 Calma 10 Sudeste 0 906.5 0.1 85
2018-11-29 09:00:00 3.2 0 Calma 13 Este 0 906.7 0.4 96
2018-11-29 08:00:00 2.2 0 Calma 6 Norte 0 906.4 0.1 99
2018-11-29 07:00:00 2.7 0 Calma 4 Este 0 906.4 -0.2 98
2018-11-29 06:00:00 2.5 0 Calma 6 Este 0 906.3 -0.5 97
2018-11-29 05:00:00 3.2 0 Calma 4 Nordeste 0 906.3 -0.7 97
2018-11-29 04:00:00 3.2 0 Calma 7 Noroeste 0 906.6 -0.9 98
2018-11-29 03:00:00 3.3 0 Calma -- -- 0 906.8 -0.9 97
2018-11-29 02:00:00 3.3 0 Calma 0 Calma 0 907 -0.9 96
2018-11-29 01:00:00 3.3 0 Calma 0 Calma 0 907.5 -0.7 93
2018-11-29 00:00:00 3.6 0 Calma 0 Calma 0 907.7 -0.3 93
2018-11-28 23:00:00 4 0 Calma -- -- 0 907.9 -0.6 88
2018-11-28 22:00:00 4.1 0 Calma 4 Noroeste 0 908.2 0 88
2018-11-28 21:00:00 4.6 0 Calma 5 Este 0 908 -0.1 84
2018-11-28 14:00:00 8.9 5 Sudeste 11 Sur 0 908.7 -0.8 70
2018-11-28 13:00:00 8.9 4 Sudeste 10 Sur 0 908.9 -0.6 70
2018-11-28 12:00:00 7.9 3 Sudeste 15 Este 0 909.6 0.5 75
2018-11-28 11:00:00 6.6 0 Calma 12 Este 0 909.5 0.8 92
2018-11-28 10:00:00 4.4 0 Calma 3 Oeste 0 909.5 1.2 99
2018-11-28 09:00:00 3 0 Calma 8 Este 0 909.1 1 99
2018-11-28 08:00:00 2.3 0 Calma 4 Sudeste 0 908.7 0.6 99
2018-11-28 07:00:00 2.9 0 Calma 0 Calma 0 908.3 0.1 99
2018-11-28 06:00:00 2.9 0 Calma 2 Este 0 908.1 -0.2 99
2018-11-28 05:00:00 3.3 0 Calma 5 Este 0 908.1 -0.3 96
2018-11-28 04:00:00 3.2 0 Calma 4 Sudeste 0 908.2 -0.6 94
2018-11-28 03:00:00 3.3 0 Calma 5 Este 0 908.3 -0.3 94
2018-11-28 02:00:00 3.7 2 Nordeste 7 Este 0 908.4 -0.2 94
2018-11-28 01:00:00 4.3 4 Este 6 Este 0 908.8 0.2 92
2018-11-28 00:00:00 4.4 4 Nordeste 6 Nordeste 0 908.6 0.1 90
2018-11-27 23:00:00 4.7 3 Nordeste 6 Nordeste 0 908.6 0.3 85
2018-11-27 22:00:00 4.7 4 Nordeste 5 Nordeste 0 908.6 0.2 83
2018-11-27 21:00:00 5.2 0 Calma 5 Sudeste 0 908.5 0.5 81
2018-11-27 20:00:00 6 6 Sudeste 14 Este 0 908.3 0.4 74
2018-11-27 19:00:00 6.1 4 Este 6 Este 0 908.4 0.7 70
2018-11-27 18:00:00 7 3 Sudoeste 26 Sudeste 0 908 0.2 66
2018-11-27 17:00:00 8.5 4 Sur 13 Sudeste 0 907.9 -0.1 60
2018-11-27 16:00:00 8.9 4 Sudoeste 10 Sudeste 0 907.7 -0.5 57
2018-11-27 15:00:00 8.9 6 Sur 18 Este 0 907.8 -0.9 56
2018-11-27 14:00:00 8.9 6 Sur 15 Sudeste 0 908 -0.4 60
2018-11-27 13:00:00 8.6 7 Sur 14 Sudeste 0 908.2 0.2 59
2018-11-27 12:00:00 8 3 Sur 9 Sur 0 908.7 0.9 62
2018-11-27 11:00:00 6.6 3 Sur 7 Sur 0 908.4 0.9 69
2018-11-27 10:00:00 5.2 5 Este 9 Este 0 908 1 70
2018-11-27 09:00:00 3.3 5 Este 9 Sudeste 0 907.8 0.6 75
2018-11-27 08:00:00 3 4 Noroeste 8 Norte 0 907.5 -0.1 74
2018-11-27 07:00:00 3.1 3 Norte 5 Norte 0 907 -0.7 72
2018-11-27 06:00:00 3 3 Noroeste 6 Noroeste 0 907.2 -0.2 74
2018-11-27 05:00:00 3.1 4 Oeste 8 Oeste 0 907.6 0.1 72
2018-11-27 04:00:00 3.2 3 Oeste 6 Noroeste 0 907.7 0.4 72
2018-11-27 03:00:00 3.4 3 Norte 10 Sudeste 0 907.4 0.3 69
2018-11-27 02:00:00 3.7 4 Norte 14 Norte 0 907.5 0.9 69
2018-11-27 01:00:00 3.6 5 Norte 13 Norte 0 907.3 1.1 68
2018-11-27 00:00:00 4.1 3 Nordeste 10 Sur 0 907.1 1.5 63
2018-11-26 23:00:00 4.5 4 Este 12 Sur 0 906.6 1.9 63
2018-11-26 22:00:00 5.3 5 Sudeste 12 Sudeste 0 906.2 2.1 59
2018-11-26 21:00:00 5.6 8 Sur 12 Sur 0 905.6 2.7 59
2018-11-26 20:00:00 6.4 4 Sur 45 Noroeste 0 904.7 1.6 53
2018-11-26 19:00:00 7.4 14 Noroeste 37 Noroeste 0 904.1 1.9 49
2018-11-26 18:00:00 7 18 Noroeste 43 Noroeste 0 902.9 1.3 51
2018-11-26 17:00:00 8.3 5 Noroeste 24 Noroeste 0 903.1 2.5 51
2018-11-26 16:00:00 6.8 4 Norte 20 Noroeste 0 902.2 2.2 55
2018-11-26 15:00:00 6.8 9 Noroeste 39 Noroeste 0 901.6 1.6 54
2018-11-26 14:00:00 7.7 18 Noroeste 44 Noroeste 0 900.6 1.4 56
2018-11-26 13:00:00 7.5 21 Noroeste 59 Noroeste 0 900 2 60
2018-11-26 12:00:00 6.1 19 Noroeste 37 Noroeste 0.4 900 3.1 79
2018-11-26 11:00:00 7.6 4 Noroeste 15 Oeste 0 899.2 2.9 76
2018-11-26 10:00:00 5 2 Sudoeste 33 Oeste 0.2 898 2 94
2018-11-26 09:00:00 3.5 18 Oeste 40 Oeste 0.3 896.9 1.6 94
2018-11-26 08:00:00 3.9 21 Oeste 45 Oeste 0 896.3 2.9 81
2018-11-26 07:00:00 3.8 20 Oeste 39 Oeste 0 896 4.5 75
2018-11-26 06:00:00 4.3 17 Oeste 47 Oeste 0 895.3 2.7 60
2018-11-26 05:00:00 4.6 18 Oeste 62 Oeste 0 893.4 1.9 53
2018-11-26 04:00:00 4.7 25 Oeste 66 Oeste 0 891.5 -0.5 51
2018-11-26 03:00:00 5.7 19 Oeste 49 Oeste 0 892.6 0.1 75
2018-11-26 02:00:00 6.2 18 Sudoeste 36 Sudoeste 0.5 891.5 -1.8 99
2018-11-26 01:00:00 6.1 2 Sudoeste 6 Sudoeste 0.3 892 -2 99
2018-11-26 00:00:00 6 0 Calma 7 Sudoeste 0.9 892.5 -1.8 99
2018-11-25 23:00:00 6.2 3 Sudoeste 10 Sudoeste 1.7 893.3 -1.1 98
2018-11-25 22:00:00 6.3 7 Sudoeste 16 Oeste 0.8 894 -0.4 96
2018-11-25 21:00:00 7.8 9 Sudoeste 20 Sudoeste 0.5 894.3 0 98
2018-11-25 20:00:00 8.2 11 Sudoeste 19 Sudoeste 0 894.4 -0.2 98
2018-11-25 19:00:00 8.4 8 Sudoeste 18 Sudoeste 0 894.4 -0.5 97
2018-11-25 18:00:00 9.1 7 Sudoeste 22 Sur 0 894.3 -1.1 92
2018-11-25 17:00:00 10.4 7 Sudoeste 18 Sudoeste 0 894.6 -1.2 87
2018-11-25 16:00:00 11.4 11 Sudoeste 26 Oeste 0 894.9 -1 62
2018-11-25 15:00:00 12.2 11 Oeste 31 Oeste 0 895.4 -0.8 52
2018-11-25 14:00:00 11.6 15 Sudoeste 35 Sudoeste 0 895.8 -0.7 65
2018-11-25 13:00:00 11.8 15 Oeste 41 Oeste 0 895.9 -0.4 66
2018-11-25 12:00:00 10.2 20 Oeste 47 Oeste 0.1 896.2 0.1 81
2018-11-25 11:00:00 7.1 15 Sudoeste 25 Sudoeste 0 896.5 0.4 99
2018-11-25 10:00:00 5.8 11 Sudoeste 22 Sudoeste 0 896.3 0.4 99
2018-11-25 09:00:00 5.2 10 Sudoeste 18 Sudoeste 0.1 896.1 0.3 99
2018-11-25 08:00:00 4.8 8 Sudoeste 18 Sudoeste 0.2 896.1 -0.1 99
2018-11-25 07:00:00 5 9 Sudoeste 17 Sudoeste 0.1 895.9 -1.1 99
2018-11-25 06:00:00 4.5 5 Sudoeste 12 Sudoeste 0 895.8 -1.6 99
2018-11-25 05:00:00 4.1 0 Calma 5 Sur 0.2 896.2 -1.5 99
2018-11-25 04:00:00 4 0 Calma 13 Sur 0.2 897 -1.4 99
2018-11-25 03:00:00 4.1 3 Sudoeste 10 Sudoeste 0.3 897.4 -1.7 99
2018-11-25 02:00:00 4.2 5 Sudoeste 16 Sudoeste 0 897.7 -1.9 98
2018-11-25 01:00:00 4.1 3 Sudoeste 8 Sudoeste 0.1 898.4 -1.6 98
2018-11-25 00:00:00 4.1 3 Sudoeste 8 Sudoeste 0 899.1 -1 97
2018-11-24 23:00:00 4.3 4 Sudoeste 13 Sudoeste 0.3 899.6 -0.7 97
2018-11-24 22:00:00 3.9 5 Sudoeste 10 Sudoeste 0 900 -0.3 97
2018-11-24 21:00:00 3.7 5 Sudoeste 12 Sudoeste 0 900.1 -0.3 97
2018-11-24 20:00:00 3.9 2 Sudoeste 10 Sudoeste 0 900.3 -0.1 97
2018-11-24 19:00:00 3.7 3 Sudoeste 9 Sudoeste 0 900.3 -0.5 94
2018-11-24 18:00:00 4.2 0 Calma 8 Oeste 0 900.4 -0.8 91
2018-11-24 17:00:00 4.7 0 Calma 7 Sur 0 900.4 -1.4 91
2018-11-24 16:00:00 4.4 4 Sur 9 Sur 0 900.8 -1.6 91
2018-11-24 15:00:00 4.1 0 Calma 11 Oeste 0 901.2 -1.9 97
2018-11-24 14:00:00 3.1 5 Sudoeste 12 Oeste 0 901.8 -1.1 99
2018-11-24 13:00:00 2.7 2 Sudoeste 9 Sudeste 0 902.4 -0.1 99
2018-11-24 12:00:00 2.4 5 Este 11 Sudeste 0 903.1 1.1 99
2018-11-24 11:00:00 1.8 0 Calma 7 Este 0 902.9 1.5 99
2018-11-24 10:00:00 0.6 0 Calma 9 Sudeste 0 902.5 1.1 99
2018-11-24 09:00:00 0.7 4 Sur 7 Sur 0 902 0.8 99
2018-11-24 08:00:00 -0.7 0 Calma 7 Oeste 0 901.4 0.1 99
2018-11-24 07:00:00 0.3 0 Calma -- -- 0 901.4 -0.1 99
2018-11-24 06:00:00 0 0 Calma -- -- 0 901.2 -0.4 97
2018-11-24 05:00:00 1.3 0 Calma 8 Sudeste 0 901.3 -0.1 93
2018-11-24 04:00:00 1.7 5 Sudeste 10 Sudeste 0 901.5 -0.6 85
2018-11-24 03:00:00 2 3 Sudeste 9 Sudeste 0 901.6 -0.7 81
2018-11-24 02:00:00 2.1 0 Calma 7 Norte 0 901.4 -0.6 81
2018-11-24 01:00:00 1.7 0 Calma -- -- 0 902.1 0.8 84
2018-11-24 00:00:00 1.6 0 Calma -- -- 0 902.3 1.4 85
2018-11-23 23:00:00 2.4 0 Calma 10 Oeste 0 902 1.5 85
2018-11-23 22:00:00 2.9 0 Calma 9 Oeste 0 901.3 1.1 84
2018-11-23 21:00:00 3.4 3 Oeste 9 Oeste 0 900.9 0.8 87
2018-11-23 20:00:00 3.5 0 Calma 7 Sudoeste 0 900.5 0.7 88
2018-11-23 19:00:00 4.3 5 Sudoeste 24 Sudoeste 0 900.2 0.8 82
2018-11-23 18:00:00 5.7 10 Sudoeste 22 Sur 0 900.1 0.7 76
2018-11-23 17:00:00 6.7 10 Sudoeste 22 Sudoeste 0 899.8 0.3 65
2018-11-23 16:00:00 8.7 12 Sudoeste 21 Sur 0 899.4 -0.1 61
2018-11-23 15:00:00 7.2 9 Sudoeste 21 Oeste 0 899.4 -0.7 64
2018-11-23 14:00:00 7.2 10 Sudoeste 25 Sudoeste 0 899.5 -0.6 51
2018-11-23 13:00:00 8.3 10 Oeste 31 Sur 0.1 899.5 -0.3 54
2018-11-23 12:00:00 6.4 0 Calma 11 Este 0 900.1 0.9 85
2018-11-23 11:00:00 5.2 3 Este 9 Este 0 900.1 1.7 99
2018-11-23 10:00:00 4 6 Este 16 Este 0 899.8 1.6 99
2018-11-23 09:00:00 3.7 10 Este 15 Sudeste 0 899.2 1.3 99
2018-11-23 08:00:00 3.8 3 Sudeste 17 Noroeste 0 898.4 0.6 99
2018-11-23 07:00:00 3.5 12 Oeste 23 Oeste 1.6 898.2 0 99
2018-11-23 06:00:00 5 8 Sudoeste 13 Sudoeste 0.8 897.9 -0.5 99
2018-11-23 05:00:00 5.6 0 Calma 11 Sudoeste 0.7 897.8 -0.9 99
2018-11-23 04:00:00 5.8 5 Sudoeste 9 Sudoeste 1 898.2 -1.1 99
2018-11-23 03:00:00 5.8 0 Calma 3 Sur 1.1 898.4 -0.9 99
2018-11-23 02:00:00 5.9 3 Sudeste 6 Sudeste 0.2 898.7 -1.2 99
2018-11-23 01:00:00 5.9 4 Sudeste 9 Sudeste 0 899.3 -0.8 99
2018-11-23 00:00:00 5.9 6 Sudeste 15 Sudeste 0 899.3 -1.1 99
2018-11-22 23:00:00 6.1 8 Sudeste 11 Sudeste 0.4 899.9 -0.6 99
2018-11-22 22:00:00 5.8 6 Sudeste 9 Este 0.1 900.1 -0.4 99
2018-11-22 21:00:00 6 5 Sudeste 11 Este 0.8 900.4 0 96
2018-11-22 20:00:00 6.4 2 Este 13 Sudeste 0 900.5 0.2 91
2018-11-22 19:00:00 6.2 0 Calma 21 Sur 0 900.5 0.1 91
2018-11-22 18:00:00 6.3 0 Calma 10 Sudoeste 0 900.4 0 89
2018-11-22 17:00:00 6.8 0 Calma 6 Sur 0 900.3 -0.6 85
2018-11-22 16:00:00 7.2 2 Sudoeste 10 Sudoeste 0 900.4 -1.2 84
2018-11-22 15:00:00 6.9 5 Sudoeste 14 Sudoeste 0 900.4 -1.5 86
2018-11-22 14:00:00 6.2 5 Sur 10 Sur 0 900.9 -1.3 99
2018-11-22 13:00:00 5.9 6 Sur 13 Sudeste 0 901.6 -0.2 99
2018-11-22 12:00:00 5.3 7 Sudeste 12 Sudeste 0.2 901.9 0.5 99
2018-11-22 11:00:00 4.9 3 Sudeste 8 Sudeste 0 902.2 1.1 99
2018-11-22 10:00:00 4.3 0 Calma 12 Sur 0 901.8 0.9 99
2018-11-22 09:00:00 4 3 Sur 10 Sur 0 901.4 0.9 99
2018-11-22 08:00:00 4.2 6 Sudoeste 16 Sudoeste 0 901.1 0.6 99
2018-11-22 07:00:00 4.1 2 Sudoeste 9 Sur 0.3 900.9 0.2 99
2018-11-22 06:00:00 3.9 5 Sur 10 Sur 0.3 900.5 -0.2 99
2018-11-22 05:00:00 3.7 4 Sudeste 12 Sudoeste 0 900.5 -0.2 99
2018-11-22 04:00:00 3.7 6 Sudoeste 14 Sudoeste 0 900.7 0.1 99
2018-11-22 03:00:00 3.4 3 Sudoeste 17 Sudoeste 0 900.7 0.1 99
2018-11-22 02:00:00 3.2 4 Oeste 10 Sudoeste 0 900.7 0.5 99
2018-11-22 01:00:00 3.2 7 Sudoeste 14 Sudoeste 0 900.6 0.5 99
2018-11-22 00:00:00 3.9 8 Sudoeste 15 Sudoeste 0 900.6 0.8 99
2018-11-21 23:00:00 4 10 Sudoeste 19 Sudoeste 0.1 900.2 1.1 99
2018-11-21 22:00:00 4.5 10 Sudoeste 20 Sudoeste 0 900.1 1.7 99
2018-11-21 21:00:00 4.8 9 Sudoeste 17 Sudoeste 0 899.8 1.9 99
2018-11-21 20:00:00 4.9 8 Sudoeste 21 Sudoeste 0 899.1 1.5 99
2018-11-21 19:00:00 4.9 12 Sudoeste 23 Sudoeste 0 898.4 1.3 97
2018-11-21 18:00:00 5.5 9 Sudoeste 21 Sudoeste 0 897.9 0.9 87
2018-11-21 17:00:00 6.5 16 Sudoeste 33 Sudoeste 0 897.6 0.6 73
2018-11-21 16:00:00 7.5 19 Sudoeste 40 Sudoeste 0 897.1 0.1 66
2018-11-21 15:00:00 8.1 13 Sudoeste 40 Sudoeste 0.9 897 0 73
2018-11-21 14:00:00 6.6 18 Sudoeste 33 Sudoeste 0.2 897 0.4 79
2018-11-21 13:00:00 6.5 20 Sudoeste 41 Sudoeste 0.2 897 1.1 83
2018-11-21 12:00:00 7.3 15 Sudoeste 34 Sudoeste 0.2 897 2 99
2018-11-21 11:00:00 5.3 13 Sudoeste 27 Sudoeste 0.2 896.6 2.1 99
2018-11-21 10:00:00 4.7 15 Sudoeste 27 Sudoeste 0.2 895.9 1.9 99
2018-11-21 09:00:00 4.8 13 Sudoeste 32 Sudoeste 0.2 895 1.2 99
2018-11-21 08:00:00 5 12 Sudoeste 28 Sudoeste 0.2 894.5 1.5 99
2018-11-21 07:00:00 5 10 Sudoeste 25 Sudoeste 0 894 1 99
2018-11-21 06:00:00 5.3 12 Sudoeste 24 Sudoeste 0 893.8 0.9 99
2018-11-21 05:00:00 5.4 9 Sudoeste 22 Sudoeste 0 893 0.5 99
2018-11-21 04:00:00 5.1 6 Oeste 15 Oeste 0.1 893 0.6 99
2018-11-21 03:00:00 4.7 7 Sudoeste 20 Sudoeste 0 892.9 0.7 99
2018-11-21 02:00:00 4.8 12 Sudoeste 23 Sudoeste 0 892.5 1 99
2018-11-21 01:00:00 4.8 9 Sudoeste 19 Sudoeste 0.1 892.4 1.5 99
2018-11-21 00:00:00 4.9 10 Sudoeste 17 Sudoeste 0.1 892.2 1.9 99
2018-11-20 23:00:00 4.5 9 Sudoeste 25 Sudoeste 0.1 891.5 1.9 99
2018-11-20 22:00:00 5.2 13 Sudoeste 22 Sudoeste 0.1 890.9 1.6 99
2018-11-20 21:00:00 5 9 Sudoeste 25 Sur 0 890.3 1.8 99
2018-11-20 20:00:00 5.2 10 Sudoeste 41 Sudeste 0 889.6 1.6 99
2018-11-20 19:00:00 5.4 12 Sudoeste 27 Sudoeste 0 889.3 2.2 99
2018-11-20 18:00:00 5.9 15 Sudoeste 28 Sudoeste 0 888.5 1.8 91
2018-11-20 17:00:00 7 14 Sudoeste 24 Sudoeste 0 888 1.2 78
2018-11-20 16:00:00 8.1 13 Oeste 32 Sudoeste 0.1 887.1 -0.3 79
2018-11-20 15:00:00 8.6 14 Sudoeste 29 Sudoeste 0.1 886.7 -1 87
2018-11-20 14:00:00 8.1 11 Sudoeste 24 Sudoeste 0.2 886.8 -0.7 87
2018-11-20 13:00:00 7.2 13 Sudoeste 26 Sudoeste 0.2 887.4 0.1 96
2018-11-20 12:00:00 5.2 11 Sudoeste 25 Oeste 0.2 887.7 0.4 95
2018-11-20 11:00:00 5.4 8 Sudoeste 27 Sudoeste 0.2 887.5 0.6 99
2018-11-20 10:00:00 6.3 12 Sudoeste 27 Sudoeste 0 887.3 0.6 99
2018-11-20 09:00:00 6 13 Sudoeste 24 Sudoeste 0 887.3 0.2 99
2018-11-20 08:00:00 5.8 12 Sudoeste 24 Sudoeste 0 886.9 -0.4 99
2018-11-20 07:00:00 5.5 10 Sudoeste 21 Sudoeste 0.3 886.7 -0.6 99
2018-11-20 06:00:00 6.1 10 Sudoeste 23 Sudoeste 0.3 887.1 -0.8 99
2018-11-20 05:00:00 6.2 9 Sudoeste 19 Sudoeste 0.2 887.3 -0.7 99
2018-11-20 04:00:00 6.6 4 Sudoeste 14 Sudoeste 0 887.3 -0.9 98
2018-11-20 03:00:00 6.9 3 Sudoeste 8 Sudoeste 0 887.9 -0.7 96
2018-11-20 02:00:00 7.2 3 Sur 8 Sudoeste 0 888 -0.8 93
2018-11-20 01:00:00 7.1 0 Calma -- -- 0 888.2 -0.6 91
2018-11-20 00:00:00 7.2 0 Calma 6 Noroeste 0 888.6 -0.1 91
2018-11-19 23:00:00 7.3 0 Calma 5 Sudeste 0 888.8 0 94
2018-11-19 22:00:00 7.7 2 Sudeste 6 Sur 0 888.8 0 91
2018-11-19 21:00:00 8 0 Calma 30 Sudeste 0 888.7 0.2 88
2018-11-19 20:00:00 8.5 4 Sudeste 25 Sudeste 0.1 888.8 0.3 86
2018-11-19 19:00:00 8.6 4 Sudeste 18 Este 0 888.8 0.1 85
2018-11-19 18:00:00 8.6 3 Sudoeste 13 Sudoeste 0 888.5 -0.1 81
2018-11-19 17:00:00 9.1 9 Sudoeste 15 Sudoeste 0 888.5 -0.6 77
2018-11-19 16:00:00 9.4 3 Sudoeste 11 Sur 0 888.7 -0.8 75
2018-11-19 15:00:00 9.6 4 Sur 12 Sudoeste 0 888.6 -1.5 73
2018-11-19 14:00:00 9.3 3 Sudoeste 9 Oeste 0 889.1 -1.3 72
2018-11-19 13:00:00 9.8 2 Sudoeste 9 Sudeste 0 889.5 -0.9 70
2018-11-19 12:00:00 9.2 4 Sudeste 20 Este 0 890.1 -0.3 79
2018-11-19 11:00:00 7.9 12 Este 19 Este 0 890.4 0.2 81
2018-11-19 10:00:00 7.3 7 Nordeste 20 Nordeste 0 890.4 0.4 85
2018-11-19 09:00:00 6.4 8 Norte 21 Norte 0 890.4 0 91
2018-11-19 08:00:00 6 6 Nordeste 19 Nordeste 0 890.2 -0.1 98
2018-11-19 07:00:00 5.6 8 Norte 16 Norte 0 890 -0.6 99
2018-11-19 06:00:00 5.7 10 Norte 18 Norte 0.6 890.4 -0.6 99
2018-11-19 05:00:00 6 7 Norte 17 Norte 0.8 890.3 -0.7 99
2018-11-19 04:00:00 6.1 8 Norte 28 Este 0.9 890.6 -0.8 99
2018-11-19 03:00:00 5.9 15 Este 23 Este 1.2 891 -0.5 99
2018-11-19 02:00:00 5.8 15 Este 21 Este 1.4 891 -0.5 99
2018-11-19 01:00:00 5.9 13 Este 28 Este 1.7 891.4 0.1 99
2018-11-19 00:00:00 6.2 16 Este 37 Este 1.8 891.5 0.5 99
2018-11-18 23:00:00 6.5 17 Sudeste 36 Sudeste 1.9 891.5 0.6 99
2018-11-18 22:00:00 7 17 Este 33 Este 1.7 891.3 0.3 99
2018-11-18 21:00:00 7.1 17 Este 30 Este 1.4 891 -0.1 99
2018-11-18 20:00:00 7.1 17 Este 27 Este 1.3 890.9 -0.5 99
2018-11-18 19:00:00 7 17 Este 26 Nordeste 1.2 891 -0.6 99
2018-11-18 18:00:00 7.2 14 Este 21 Este 0.6 891.1 -0.6 99
2018-11-18 17:00:00 7.6 12 Sudeste 28 Sudeste 0.3 891.4 -0.6 97
2018-11-18 16:00:00 8.6 9 Sudeste 17 Sudeste 0 891.6 -1.1 91
2018-11-18 15:00:00 8.9 9 Sudeste 14 Este 0 891.7 -1.8 88
2018-11-18 14:00:00 8.7 9 Este 17 Este 0 892 -2.1 90
2018-11-18 13:00:00 8.4 10 Este 19 Este 0 892.7 -1.5 91
2018-11-18 12:00:00 8.1 13 Este 19 Este 0 893.5 -0.7 91
2018-11-18 11:00:00 8.2 12 Este 20 Este 0 894.1 -0.1 91
2018-11-18 10:00:00 7.8 12 Este 18 Este 0 894.2 -0.2 91
2018-11-18 09:00:00 7.9 10 Este 17 Este 0 894.2 -0.3 91
2018-11-18 08:00:00 7.8 11 Este 17 Nordeste 0 894.2 -0.9 92
2018-11-18 07:00:00 8 9 Este 17 Este 0 894.4 -1.4 92
2018-11-18 06:00:00 8.1 9 Este 18 Sudeste 0 894.5 -1.8 92
2018-11-18 05:00:00 8 10 Sudeste 17 Sudeste 0 895.1 -1.9 92
2018-11-18 04:00:00 8.3 9 Este 19 Sudeste 0 895.8 -2 91
2018-11-18 03:00:00 8.3 7 Este 15 Sudeste 0 896.3 -1.8 91
2018-11-18 02:00:00 8.8 7 Sudeste 17 Este 0 897 -1.3 84
2018-11-18 01:00:00 8.8 5 Sudeste 11 Sudeste 0 897.8 -1.1 83
2018-11-18 00:00:00 9.4 5 Sudeste 13 Sudeste 0 898.1 -0.9 81
2018-11-17 23:00:00 9.7 5 Este 8 Este 0 898.3 -0.8 79
2018-11-17 22:00:00 9.4 5 Sudeste 13 Este 0 898.9 -0.3 79
2018-11-17 21:00:00 9.9 5 Nordeste 10 Norte 0 899 -0.6 79
2018-11-17 20:00:00 9.4 3 Nordeste 10 Norte 0 899.1 -0.6 77
2018-11-17 19:00:00 9.5 4 Norte 7 Este 0 899.2 -1 77
2018-11-17 18:00:00 10.1 3 Norte 7 Nordeste 0 899.6 -1.2 79
2018-11-17 17:00:00 11 2 Nordeste 7 Norte 0 899.7 -1.5 76
2018-11-17 16:00:00 11.6 2 Noroeste 8 Este 0 900.2 -1.8 75
2018-11-17 15:00:00 11.5 4 Norte 9 Noroeste 0 900.8 -2.2 81
2018-11-17 14:00:00 10.9 3 Norte 12 Norte 0 901.2 -1.9 83
2018-11-17 13:00:00 10.3 4 Norte 11 Sudeste 0 902 -1.3 84
2018-11-17 12:00:00 10.2 5 Sur 16 Sur 0 903 -0.4 85
2018-11-17 11:00:00 9.7 6 Este 17 Este 0 903.1 0.1 88
2018-11-17 10:00:00 9 11 Este 15 Este 0 903.3 0.1 91
2018-11-17 09:00:00 8.8 8 Sudeste 14 Este 0 903.4 0.5 91
2018-11-17 08:00:00 9 5 Este 11 Este 0 903 -0.3 91
2018-11-17 07:00:00 9 0 Calma 7 Este 0 903.2 0 91
2018-11-17 06:00:00 8.9 6 Este 12 Este 0 902.9 -0.8 92
2018-11-17 05:00:00 8.7 3 Nordeste 10 Sudeste 0 903.3 -0.5 92
2018-11-17 04:00:00 8.8 10 Sudeste 16 Este 0 903.2 -0.8 91
2018-11-17 03:00:00 9.6 6 Este 11 Sudeste 0 903.7 -0.4 89
2018-11-17 02:00:00 9.8 5 Sudeste 15 Este 0 903.8 -0.5 89
2018-11-17 01:00:00 9.9 7 Este 13 Este 0 904 -0.3 91
2018-11-17 00:00:00 9.9 4 Este 13 Sudeste 0 904.1 0 91
2018-11-16 23:00:00 10.2 8 Sudeste 16 Sudeste 0 904.3 0.3 88
2018-11-16 22:00:00 10.8 9 Sudeste 17 Sudeste 0 904.3 0.3 85
2018-11-16 21:00:00 11 9 Sudeste 14 Sudeste 0 904.1 0.5 87
2018-11-16 20:00:00 10.7 4 Este 9 Este 0.1 904 0.1 88
2018-11-16 19:00:00 10.7 3 Nordeste 9 Norte 0 904 0 88
2018-11-16 18:00:00 11 0 Calma 7 Sudeste 0 903.6 -0.8 85
2018-11-16 17:00:00 11.9 4 Este 8 Este 0 903.9 -0.9 83
2018-11-16 16:00:00 11.5 6 Este 11 Este 0 904 -1.2 83
2018-11-16 15:00:00 11.5 6 Este 13 Sur 0 904.4 -1.3 83
2018-11-16 14:00:00 11.1 8 Sudeste 17 Sudeste 0 904.8 -1 83
2018-11-16 13:00:00 11.2 9 Sudeste 17 Sudeste 0 905.2 -0.4 83
2018-11-16 12:00:00 10.9 8 Sudeste 14 Sudeste 0.5 905.7 0.4 90
2018-11-16 11:00:00 10.7 12 Este 19 Sudeste 0 905.8 0.6 86
2018-11-16 10:00:00 11.9 12 Este 27 Sudeste 0 905.6 0.8 83
2018-11-16 09:00:00 10.5 9 Este 15 Este 0 905.3 0.5 93
2018-11-16 08:00:00 9.8 7 Este 11 Este 0 905.2 0.4 94
2018-11-16 07:00:00 9.8 7 Este 19 Este 0.1 904.8 -0.1 96
2018-11-16 06:00:00 9.8 5 Nordeste 14 Este 0.1 904.8 -0.5 97
2018-11-16 05:00:00 9.8 8 Este 15 Este 0 904.8 -0.6 97
2018-11-16 04:00:00 9.7 8 Este 21 Este 0.9 904.9 -0.8 97
2018-11-16 03:00:00 10.1 8 Este 15 Este 0.2 905.3 -0.5 93
2018-11-16 02:00:00 10.1 4 Nordeste 14 Norte 0 905.4 -0.2 92
2018-11-16 01:00:00 10.2 3 Nordeste 16 Nordeste 0 905.7 0.5 92
2018-11-16 00:00:00 10.7 12 Nordeste 21 Este 0 905.8 1 88
2018-11-15 23:00:00 10.9 12 Este 24 Este 0 905.6 1.1 83
2018-11-15 22:00:00 10.9 4 Norte 17 Nordeste 0 905.2 1 87
2018-11-15 21:00:00 10.7 5 Nordeste 20 Norte 0 904.8 0.8 89
2018-11-15 20:00:00 11 5 Nordeste 18 Este 0.1 904.5 0.7 84
2018-11-15 19:00:00 11.9 7 Este 11 Este 0 904.2 0.4 76
2018-11-15 18:00:00 12.3 5 Este 14 Nordeste 0 904 0.2 64
2018-11-15 17:00:00 13.5 8 Sudeste 13 Este 0 903.8 -0.4 58
2018-11-15 16:00:00 14 8 Sudeste 17 Sudeste 0 903.8 -0.8 57
2018-11-15 15:00:00 14.1 12 Este 23 Este 0 903.8 -1.4 59
2018-11-15 14:00:00 14.2 10 Este 25 Sudeste 0 904.2 -1 60
2018-11-15 13:00:00 13.1 6 Sudeste 18 Este 0 904.6 -0.4 65
2018-11-15 12:00:00 12.7 6 Este 13 Este 0 905.2 0.3 70
2018-11-15 11:00:00 11.5 4 Nordeste 19 Este 0 905.2 1 80
2018-11-15 10:00:00 10.5 9 Este 15 Este 0 905 0.9 88
2018-11-15 09:00:00 9.9 7 Este 14 Este 0 904.9 1 91
2018-11-15 08:00:00 9.7 6 Nordeste 12 Nordeste 0 904.2 0.5 93
2018-11-15 07:00:00 9.8 4 Nordeste 11 Este 0 904.1 0 92
2018-11-15 06:00:00 9.8 6 Este 10 Este 0 903.9 -0.5 92
2018-11-15 05:00:00 9.8 4 Nordeste 10 Este 0 903.7 -1.2 93
2018-11-15 04:00:00 9.8 5 Este 8 Este 0 904.1 -1 93
2018-11-15 03:00:00 9.9 7 Este 21 Sudeste 0 904.4 -0.9 92
2018-11-15 02:00:00 10 12 Sudeste 23 Este 0 904.9 -0.9 92
2018-11-15 01:00:00 10.4 6 Sudeste 15 Este 0 905.1 -0.8 91
2018-11-15 00:00:00 10.1 3 Nordeste 7 Noroeste 0 905.3 -0.7 96
2018-11-14 23:00:00 10.2 0 Calma 14 Este 0.4 905.8 -0.2 95
2018-11-14 22:00:00 10.9 9 Sudeste 21 Este 0.5 905.9 0 85
2018-11-14 21:00:00 11.3 7 Este 26 Nordeste 0 906 0.1 77
2018-11-14 20:00:00 11.7 5 Nordeste 18 Este 0 906 -0.1 75
2018-11-14 19:00:00 11.1 4 Nordeste 11 Nordeste 0 905.9 -0.7 76
2018-11-14 18:00:00 11.9 4 Nordeste 10 Nordeste 0 905.9 -0.8 73
2018-11-14 17:00:00 12.7 3 Norte 13 Este 0 906.1 -1.1 69
2018-11-14 16:00:00 12.6 8 Este 13 Este 0 906.6 -1.4 70
2018-11-14 15:00:00 12.9 6 Sudeste 22 Sudeste 0 906.7 -2 70
2018-11-14 14:00:00 12.2 9 Sudeste 18 Este 0 907.2 -2.1 71
2018-11-14 13:00:00 12.8 9 Sudeste 21 Sudeste 0 908 -1.4 68
2018-11-14 12:00:00 12.6 6 Sur 16 Sudeste 0 908.7 -0.6 71
2018-11-14 11:00:00 11.8 5 Este 14 Sudeste 0 909.3 0.2 75
2018-11-14 10:00:00 11 3 Norte 8 Norte 0 909.4 0.3 81
2018-11-14 09:00:00 9.7 0 Calma 9 Noroeste 0 909.3 -0.1 87
2018-11-14 08:00:00 8.4 5 Norte 9 Noroeste 0 909.1 -0.2 87
2018-11-14 07:00:00 8.9 0 Calma 7 Sudeste 0 909.1 -0.6 85
2018-11-14 06:00:00 8.8 3 Sudeste 7 Nordeste 0 909.4 -0.7 85
2018-11-14 05:00:00 8.7 4 Norte 6 Noroeste 0 909.3 -1.2 86
2018-11-14 04:00:00 9.3 2 Noroeste 5 Norte 0 909.7 -1.1 85
2018-11-14 03:00:00 9.9 2 Noroeste 8 Norte 0 910.1 -0.8 85
2018-11-14 02:00:00 10.3 3 Noroeste 6 Noroeste 0 910.5 -0.5 85
2018-11-14 01:00:00 10.1 0 Calma 5 Sudeste 0 910.8 -0.3 85
2018-11-14 00:00:00 10.1 0 Calma 6 Norte 0 910.9 0.2 88
2018-11-13 23:00:00 10 2 Noroeste 7 Norte 0 911 0.9 88
2018-11-13 22:00:00 9.8 3 Sudeste 19 Sudeste 0 911.1 1.4 85
2018-11-13 21:00:00 11.2 9 Este 24 Sudeste 0 910.7 1.4 68
2018-11-13 20:00:00 11.9 3 Nordeste 16 Sudeste 0 910.1 1 64
2018-11-13 19:00:00 11.8 4 Este 6 Este 0 909.7 0.9 66
2018-11-13 18:00:00 13.3 4 Este 14 Sudeste 0 909.3 0.5 62
2018-11-13 17:00:00 14.6 9 Sudeste 16 Sudeste 0 909.1 0.2 56
2018-11-13 16:00:00 16 3 Nordeste 14 Norte 0 908.8 -0.7 44
2018-11-13 15:00:00 15.6 9 Este 30 Este 0 908.8 -1 52
2018-11-13 14:00:00 15.2 6 Nordeste 19 Este 0 908.9 -1.1 51
2018-11-13 13:00:00 14.4 10 Este 21 Este 0 909.5 -0.1 58
2018-11-13 12:00:00 13.3 7 Nordeste 17 Nordeste 0 909.8 0.6 64
2018-11-13 11:00:00 12.2 8 Nordeste 15 Nordeste 0 910 1.6 70
2018-11-13 10:00:00 11.1 5 Nordeste 14 Nordeste 0 909.6 1.4 76
2018-11-13 09:00:00 9.1 5 Nordeste 12 Norte 0 909.2 1.5 83
2018-11-13 08:00:00 8.4 5 Nordeste 14 Nordeste 0 908.4 1.1 83
2018-11-13 07:00:00 8.3 5 Nordeste 15 Norte 0 908.2 1 82
2018-11-13 06:00:00 8.2 7 Nordeste 17 Nordeste 0 907.7 0.7 82
2018-11-13 05:00:00 8.3 5 Nordeste 17 Nordeste 0 907.3 0.6 82
2018-11-13 04:00:00 8.4 6 Nordeste 15 Nordeste 0 907.2 0.6 81
2018-11-13 03:00:00 8.4 6 Nordeste 14 Nordeste 0 907 0.7 81
2018-11-13 02:00:00 8.6 5 Norte 10 Nordeste 0 906.7 0.4 85
2018-11-13 01:00:00 8.8 5 Norte 9 Norte 0 906.6 0.9 87
2018-11-13 00:00:00 8.8 4 Norte 8 Nordeste 0 906.3 1.3 91
2018-11-12 23:00:00 8.9 0 Calma 6 Oeste 0 906.3 1.7 90
2018-11-12 22:00:00 8.8 4 Este 9 Este 0 905.7 1.7 91
2018-11-12 21:00:00 8.7 3 Noroeste 6 Noroeste 0 905 1.5 94
2018-11-12 20:00:00 8.8 3 Noroeste 8 Noroeste 0 904.6 1.6 93
2018-11-12 19:00:00 8.9 4 Noroeste 9 Noroeste 0 904 1.6 93
2018-11-12 18:00:00 9 3 Noroeste 5 Noroeste 0 903.5 1.2 91
2018-11-12 17:00:00 9.9 0 Calma 12 Este 0 903 0.5 89
2018-11-12 16:00:00 9.7 9 Sudeste 13 Este 0 902.4 -0.6 99
2018-11-12 15:00:00 9.2 3 Sudoeste 10 Oeste 0 902.3 -0.5 99
2018-11-12 14:00:00 8.8 5 Noroeste 13 Noroeste 0.7 902.5 0 99
2018-11-12 13:00:00 7.9 4 Sur 13 Sur 1.5 903 0.9 99
2018-11-12 12:00:00 8 9 Este 21 Sudeste 0.8 902.8 1.7 99
2018-11-12 11:00:00 8.4 4 Sudeste 13 Sur 0 902.5 2 98
2018-11-12 10:00:00 8.2 8 Sudeste 14 Sudeste 0 902.1 2.1 99
2018-11-12 09:00:00 8 6 Este 12 Sudeste 0 901.1 1.6 99
2018-11-12 08:00:00 7.8 4 Sudeste 8 Este 0 900.5 0.9 99
2018-11-12 07:00:00 7.7 3 Este 6 Este 0 900 0.9 99
2018-11-12 06:00:00 7.7 0 Calma 6 Este 0 899.5 0.9 99
2018-11-12 05:00:00 7.6 3 Sudoeste 10 Sudoeste 0.1 899.6 1.2 99
2018-11-12 04:00:00 7.7 4 Sur 18 Sur 0 899.1 0.1 99
2018-11-12 03:00:00 8.3 8 Sur 22 Sudoeste 0 898.6 0.1 99
2018-11-12 02:00:00 8.6 8 Sudoeste 24 Sudoeste 0 898.4 0.2 96
2018-11-12 01:00:00 9.3 9 Sudoeste 23 Sudoeste 0 899 0.7 94
2018-11-12 00:00:00 9.5 8 Sur 21 Sur 0 898.5 0.1 94
2018-11-11 23:00:00 9.8 9 Sur 24 Sur 0 898.2 -0.2 93
2018-11-11 22:00:00 9.9 6 Sudoeste 18 Sur 0 898.3 0 92
2018-11-11 21:00:00 10 10 Sur 16 Sudeste 0 898.4 -0.4 92
2018-11-11 20:00:00 10.4 6 Sudeste 17 Sudeste 0 898.4 -0.5 91
2018-11-11 19:00:00 10.8 9 Sudeste 17 Sur 0 898.3 -0.7 85
2018-11-11 18:00:00 10.9 10 Sur 32 Sur 0 898.8 -0.8 81
2018-11-11 17:00:00 11.3 9 Sur 23 Sur 0 898.9 -1.4 75
2018-11-11 16:00:00 11.8 5 Sudoeste 21 Sur 0 899 -1.8 80
2018-11-11 15:00:00 11.3 8 Sur 18 Sur 0 899.6 -2 93
2018-11-11 14:00:00 10.8 8 Sudoeste 26 Sudoeste 0 900.3 -1.6 98
2018-11-11 13:00:00 10.2 10 Sudoeste 29 Sudoeste 0 900.8 -1 99
2018-11-11 12:00:00 9.4 12 Sudoeste 21 Sudoeste 0 901.6 0.2 99
2018-11-11 11:00:00 9.1 6 Sudoeste 21 Sudoeste 0 901.9 1.1 99
2018-11-11 10:00:00 9 10 Sudoeste 22 Sudoeste 0 901.8 1.6 99
2018-11-11 09:00:00 9 8 Sudoeste 24 Sudoeste 0 901.4 1.1 99
2018-11-11 08:00:00 8.7 12 Sudoeste 26 Sudoeste 0 900.8 0.7 99
2018-11-11 07:00:00 8.7 13 Sudoeste 29 Sudoeste 0 900.2 0 99
2018-11-11 06:00:00 9 17 Sudoeste 35 Sudoeste 0.1 900.3 0.3 99
2018-11-11 05:00:00 9.4 19 Sudoeste 39 Sudoeste 0.7 900.1 -0.6 99
2018-11-11 04:00:00 9.6 12 Sudoeste 30 Sudoeste 1.9 900.2 -0.8 99
2018-11-11 03:00:00 9.4 15 Sudoeste 25 Sudoeste 0.5 900 -1 99
2018-11-11 02:00:00 9.4 9 Sudoeste 28 Sudoeste 0.5 900.7 -0.4 99
2018-11-11 01:00:00 9.5 12 Sudoeste 23 Sudoeste 0.1 901 -0.1 99
2018-11-11 00:00:00 9.6 9 Sudoeste 20 Oeste 0 901 0.3 99
2018-11-10 23:00:00 9.7 10 Sudoeste 21 Sudoeste 0.2 901.1 0.7 99
2018-11-10 22:00:00 9.6 3 Sudoeste 18 Sudoeste 0.3 901.1 1.1 99
2018-11-10 21:00:00 9.4 9 Sudoeste 21 Sudoeste 0 900.7 1.1 99
2018-11-10 20:00:00 9.3 9 Sudoeste 22 Sudoeste 0.1 900.4 0.9 99
2018-11-10 19:00:00 9.1 9 Sudoeste 22 Sur 0 900 0.6 99
2018-11-10 18:00:00 9 11 Sudoeste 32 Sudoeste 0 899.6 0.4 99
2018-11-10 17:00:00 8.8 17 Sudoeste 34 Sudoeste 0.4 899.5 0.1 99
2018-11-10 16:00:00 8.7 17 Sudoeste 36 Sudoeste 0.1 899.4 -0.6 99
2018-11-10 15:00:00 8.4 17 Sudoeste 42 Sudoeste 0 899.2 -1.5 99
2018-11-10 14:00:00 8.1 25 Sudoeste 42 Sudoeste 0.3 899.4 -1.6 99
2018-11-10 13:00:00 7.9 17 Sudoeste 36 Sudoeste 0.4 900 -0.9 99
2018-11-10 12:00:00 7.7 18 Sudoeste 38 Sudoeste 0.3 900.7 -0.4 99
2018-11-10 11:00:00 7.4 18 Sudoeste 36 Sudoeste 0.5 901 0.2 99
2018-11-10 10:00:00 7 18 Sudoeste 32 Sudoeste 0.6 900.9 -0.2 99
2018-11-10 09:00:00 7 14 Sudoeste 27 Sudoeste 0.3 901.1 0 99
2018-11-10 08:00:00 6.9 12 Sudoeste 23 Sudoeste 0.7 900.8 -0.5 99
2018-11-10 07:00:00 6.9 12 Sudoeste 27 Sudoeste 0.5 901.1 -0.8 99
2018-11-10 06:00:00 6.8 12 Sudoeste 24 Sudoeste 0 901.1 -1.2 99
2018-11-10 05:00:00 6.7 8 Sudoeste 21 Sur 0 901.3 -1.4 99
2018-11-10 04:00:00 6.5 12 Sudoeste 24 Sudoeste 0 901.9 -1.3 99
2018-11-10 03:00:00 6.4 11 Sudoeste 25 Sudoeste 0 902.3 -1.1 99
2018-11-10 02:00:00 6.2 11 Sudoeste 23 Sudoeste 0 902.7 -0.9 99
2018-11-10 01:00:00 6 9 Oeste 21 Sudoeste 0 903.2 -0.2 99
2018-11-10 00:00:00 5.8 5 Sudoeste 15 Sudoeste 0 903.4 -0.3 97